Latest Weather Observations for Milingimbi

IDD60801

Issued at 1:01 pm CST Monday 24 April 2017 (issued every 30 minutes, with the page automatically refreshed every 10 minutes)

About weather observations | Map of weather stations | Latest weather observations for NT | Other Formats
Station Details ID: 014404 Name: MILINGIMBI AIRPORT Lat: -12.09 Lon: 134.89 Height: 15.0 m
Data from the previous 72 hours. | See also: Recent months at Milingimbi
Date/Time
CST
Temp
°C
App
Temp
°C
Dew
Point
°C
Rel
Hum
%
Delta-T
°C
Wind Press
QNH
hPa
Press
MSL
hPa
Rain since
9am
mm
Dir  Spd
km/h
Gust
km/h
Spd
kts
Gust
kts
24/01:00pm 31.5 34.7 24.4 66 5.0 ESE 15 22 8 12 1010.3 - 0.0
24/12:30pm 30.3 33.1 23.7 68 4.6 ESE 15 26 8 14 1011.0 - 0.0
24/12:00pm 29.4 32.3 23.8 72 3.9 ESE 15 26 8 14 1011.4 1011.3 0.0
24/11:30am 30.0 31.9 23.4 67 4.5 E 19 26 10 14 1011.8 - 0.0
24/11:00am 30.2 32.3 24.1 70 4.2 ESE 20 32 11 17 1012.1 - 0.0
24/10:30am 28.9 30.9 24.0 75 3.4 ESE 20 32 11 17 1012.4 - 0.0
24/10:00am 28.8 30.7 23.7 74 3.5 ESE 20 32 11 17 1012.5 - 0.0
24/09:30am 29.0 31.6 24.6 77 3.1 SE 19 28 10 15 1012.3 - 0.0
24/09:00am 27.2 29.9 23.4 80 2.6 SE 15 22 8 12 1011.8 1011.7 3.2
24/08:30am 26.7 29.8 23.6 83 2.1 SSE 13 17 7 9 1011.7 - 3.2
24/08:00am 25.9 28.8 23.2 85 1.8 SSE 13 17 7 9 1011.6 - 3.2
24/07:30am 25.4 28.3 23.1 87 1.6 SSE 13 17 7 9 1011.2 - 3.2
24/07:00am 25.2 28.2 23.3 89 1.3 SE 13 19 7 10 1010.9 - 3.2
24/06:30am 25.1 28.1 23.3 90 1.2 SE 13 17 7 9 1010.4 - 3.2
24/06:00am 25.0 28.3 23.2 90 1.2 SE 11 15 6 8 1010.1 1010.0 3.2
24/05:30am 25.0 28.6 23.1 89 1.3 SE 9 11 5 6 1010.0 - 3.2
24/05:00am 25.0 28.3 23.2 90 1.2 SSE 11 17 6 9 1009.7 - 3.2
24/04:30am 25.1 28.5 23.3 90 1.2 SSE 11 15 6 8 1009.7 - 3.2
24/04:00am 25.1 28.6 23.5 91 1.1 SSE 11 13 6 7 1009.7 - 3.2
24/03:30am 24.9 28.6 23.3 91 1.1 S 9 13 5 7 1009.9 - 3.2
24/03:00am 25.0 28.7 23.2 90 1.2 SSE 9 13 5 7 1009.9 1009.8 3.2
24/02:30am 25.0 28.7 23.2 90 1.2 SSE 9 11 5 6 1010.4 - 3.2
24/02:00am 25.1 28.8 23.3 90 1.2 SSE 9 11 5 6 1010.9 - 3.2
24/01:30am 25.2 28.6 23.4 90 1.2 SE 11 13 6 7 1011.1 - 3.2
24/01:00am 25.3 29.1 23.5 90 1.2 SSE 9 13 5 7 1011.4 - 3.2
24/12:30am 25.0 28.3 23.2 90 1.2 SSE 11 17 6 9 1011.6 - 3.2
24/12:00am 25.0 28.9 23.6 92 1.0 SSE 9 13 5 7 1011.9 1011.8 3.2
 
Date/Time
CST
Temp
°C
App
Temp
°C
Dew
Point
°C
Rel
Hum
%
Delta-T
°C
Wind Press
QNH
hPa
Press
MSL
hPa
Rain since
9am
mm
Dir  Spd
km/h
Gust
km/h
Spd
kts
Gust
kts
23/11:30pm 24.8 28.7 23.6 93 0.8 SSE 9 11 5 6 1012.1 - 3.2
23/11:00pm 24.8 29.3 23.6 93 0.8 S 6 7 3 4 1012.4 - 3.2
23/10:30pm 24.6 28.8 23.4 93 0.8 S 7 9 4 5 1012.4 - 3.0
23/10:00pm 24.6 28.8 23.4 93 0.8 SSW 7 11 4 6 1012.6 - 3.0
23/09:30pm 24.9 28.9 23.7 93 0.8 SW 9 13 5 7 1012.6 - 3.0
23/09:00pm 25.1 29.8 23.9 93 0.8 WSW 6 7 3 4 1012.6 1012.5 3.0
23/08:30pm 25.1 30.9 23.9 93 0.8 CALM 0 6 0 3 1012.4 - 3.0
23/08:00pm 25.1 29.8 23.9 93 0.8 WSW 6 7 3 4 1012.1 - 3.0
23/07:30pm 25.3 30.4 24.1 93 0.8 WNW 4 7 2 4 1011.6 - 3.0
23/07:00pm 25.2 30.6 23.8 92 1.0 NNW 2 6 1 3 1011.2 - 3.0
23/06:30pm 25.2 29.7 24.0 93 0.8 W 7 11 4 6 1010.9 - 3.0
23/06:00pm 25.5 29.8 24.3 93 0.8 W 9 15 5 8 1010.8 1010.7 3.0
23/05:30pm 25.4 29.5 24.0 92 1.0 WNW 9 15 5 8 1010.9 - 3.0
23/05:00pm 25.4 29.9 24.0 92 1.0 ENE 7 15 4 8 1010.6 - 2.6
23/04:30pm 25.5 28.3 23.6 89 1.3 ENE 15 24 8 13 1010.0 - 1.0
23/04:00pm 25.5 26.9 22.6 84 2.0 ENE 19 39 10 21 1009.6 - 0.0
23/03:57pm 25.7 26.6 22.0 80 2.5 ENE 20 39 11 21 1009.7 - 0.0
23/03:30pm 30.7 34.1 23.4 65 5.0 NE 11 20 6 11 1009.5 - 0.0
23/03:00pm 31.2 34.0 23.0 61 5.6 NE 13 20 7 11 1009.3 1009.2 0.0
23/02:30pm 30.5 32.7 21.8 59 5.9 ENE 13 22 7 12 1009.7 - 0.0
23/02:00pm 31.0 33.9 23.1 63 5.4 ESE 13 20 7 11 1010.0 - 0.0
23/01:30pm 31.5 34.4 23.9 64 5.3 ESE 15 20 8 11 1010.3 - 0.0
23/01:00pm 31.4 35.1 24.5 67 4.8 E 13 24 7 13 1010.7 - 0.0
23/12:30pm 30.6 32.8 23.3 65 5.0 ESE 17 28 9 15 1011.1 - 0.0
23/12:00pm 31.0 33.3 23.4 64 5.2 E 17 28 9 15 1011.4 1011.3 0.0
23/11:30am 30.4 32.6 23.3 66 4.9 E 17 26 9 14 1011.8 - 0.0
23/11:00am 31.0 33.2 23.9 66 4.9 ESE 19 30 10 16 1012.1 - 0.0
23/10:30am 30.3 31.5 23.2 65 4.9 ESE 22 33 12 18 1012.2 - 0.0
23/10:00am 29.7 31.6 23.4 69 4.3 ESE 19 30 10 16 1012.3 - 0.0
23/09:30am 29.2 31.5 24.1 74 3.5 SE 19 28 10 15 1012.1 - 0.0
23/09:00am 28.2 30.6 23.6 76 3.2 SE 17 28 9 15 1012.1 1012.0 6.4
23/08:30am 27.5 30.2 23.5 79 2.7 SE 15 20 8 11 1011.8 - 6.4
23/08:00am 25.8 29.5 23.3 86 1.7 SSE 9 13 5 7 1011.6 - 6.4
23/07:30am 24.9 29.1 23.5 92 1.0 S 7 11 4 6 1011.4 - 6.4
23/07:00am 24.4 28.6 23.4 94 0.7 S 7 11 4 6 1011.0 - 6.4
23/06:30am 24.3 28.3 23.1 93 0.8 SSE 7 9 4 5 1010.5 - 6.4
23/06:00am 24.6 28.3 23.2 92 0.9 SSE 9 11 5 6 1010.3 1010.2 6.4
23/05:30am 24.6 28.3 23.2 92 0.9 SSE 9 11 5 6 1010.1 - 6.2
23/05:00am 24.7 28.4 23.3 92 1.0 SE 9 11 5 6 1010.0 - 6.2
23/04:30am 24.8 28.6 23.4 92 1.0 SSE 9 13 5 7 1009.8 - 6.2
23/04:00am 24.9 28.7 23.5 92 1.0 SSE 9 11 5 6 1009.8 - 6.2
23/03:30am 25.1 29.1 23.7 92 1.0 SSE 9 11 5 6 1010.0 - 6.2
23/03:00am 25.1 28.9 23.5 91 1.1 SSE 9 13 5 7 1010.1 1010.0 6.2
23/02:30am 25.2 29.1 23.6 91 1.1 SE 9 11 5 6 1010.4 - 6.2
23/02:00am 25.2 29.0 23.4 90 1.2 SE 9 13 5 7 1010.8 - 6.2
23/01:30am 25.1 28.8 23.3 90 1.2 SSE 9 11 5 6 1011.0 - 6.2
23/01:00am 25.1 28.8 23.3 90 1.2 SSE 9 13 5 7 1011.1 - 6.2
23/12:30am 25.1 28.8 23.3 90 1.2 SSE 9 11 5 6 1011.4 - 6.2
23/12:00am 25.2 28.6 23.4 90 1.2 SSE 11 15 6 8 1011.6 1011.5 6.2
 
Date/Time
CST
Temp
°C
App
Temp
°C
Dew
Point
°C
Rel
Hum
%
Delta-T
°C
Wind Press
QNH
hPa
Press
MSL
hPa
Rain since
9am
mm
Dir  Spd
km/h
Gust
km/h
Spd
kts
Gust
kts
22/11:30pm 25.4 29.4 23.8 91 1.1 SE 9 11 5 6 1012.0 - 6.2
22/11:00pm 25.4 29.0 23.8 91 1.1 SSE 11 13 6 7 1012.0 - 6.2
22/10:30pm 25.4 29.8 23.8 91 1.1 S 7 9 4 5 1012.3 - 6.2
22/10:00pm 25.7 30.4 23.9 90 1.2 SSW 6 7 3 4 1012.4 - 6.2
22/09:30pm 25.9 30.3 23.8 88 1.4 SSW 7 9 4 5 1012.4 - 6.2
22/09:00pm 26.0 30.6 24.2 90 1.2 S 7 11 4 6 1012.3 1012.2 6.2
22/08:30pm 25.7 30.4 23.9 90 1.2 ESE 6 9 3 5 1012.0 - 6.2
22/08:00pm 25.4 29.8 23.8 91 1.1 E 7 11 4 6 1011.8 - 6.2
22/07:30pm 25.7 29.9 24.7 94 0.7 E 11 15 6 8 1011.7 - 6.0
22/07:00pm 24.4 25.7 22.7 90 1.1 E 20 35 11 19 1011.5 - 4.0
22/06:30pm 25.7 28.0 24.1 91 1.1 SE 19 24 10 13 1010.9 - 2.0
22/06:00pm 25.5 28.7 22.4 83 2.1 ENE 9 24 5 13 1010.4 1010.3 1.0
22/05:30pm 29.4 33.4 23.8 72 3.9 NNE 9 17 5 9 1009.9 - 0.0
22/05:00pm 29.6 32.7 22.8 67 4.6 N 11 17 6 9 1009.3 - 0.0
22/04:30pm 30.5 33.6 22.9 64 5.2 N 11 17 6 9 1008.8 - 0.0
22/04:00pm 30.8 33.9 22.9 62 5.4 NNE 11 19 6 10 1008.9 - 0.0
22/03:30pm 31.2 34.1 22.5 60 5.9 NE 11 19 6 10 1009.0 - 0.0
22/03:00pm 31.0 32.7 20.9 55 6.8 ENE 13 20 7 11 1009.2 1009.1 0.0
22/02:30pm 31.5 34.4 22.5 59 6.1 NE 11 20 6 11 1009.3 - 0.0
22/02:00pm 31.5 34.0 21.7 56 6.6 E 11 19 6 10 1009.7 - 0.0
22/01:30pm 31.6 34.1 21.7 55 6.7 E 11 20 6 11 1010.1 - 0.0
22/01:00pm 30.9 32.8 21.4 57 6.4 E 13 20 7 11 1010.5 - 0.0
22/12:30pm 31.6 33.6 22.3 57 6.3 SE 15 26 8 14 1010.9 - 0.0
22/12:00pm 30.8 32.7 22.1 59 5.9 ESE 15 24 8 13 1011.6 1011.5 0.0
22/11:30am 30.7 33.2 23.1 64 5.2 E 15 24 8 13 1012.1 - 0.0
22/11:00am 30.1 32.5 23.0 65 4.9 ESE 15 24 8 13 1012.6 - 0.0
22/10:30am 29.8 31.3 22.0 63 5.3 ESE 17 22 9 12 1012.8 - 0.0
22/10:00am 29.6 31.0 22.8 67 4.6 ESE 20 26 11 14 1013.0 - 0.0
22/09:30am 28.9 30.5 22.9 70 4.1 ESE 19 24 10 13 1012.9 - 0.0
22/09:00am 28.3 31.5 23.7 76 3.2 ESE 13 17 7 9 1012.7 1012.6 15.4
22/08:30am 27.2 30.9 23.9 82 2.3 SSE 11 17 6 9 1012.5 - 15.4
22/08:00am 25.4 29.5 23.3 88 1.4 S 7 11 4 6 1012.1 - 15.4
22/07:30am 24.9 30.2 23.7 93 0.8 S 2 7 1 4 1011.8 - 15.4
22/07:00am 24.0 29.3 23.0 94 0.7 CALM 0 6 0 3 1011.4 - 15.4
22/06:30am 23.9 28.0 22.9 94 0.7 S 6 7 3 4 1011.1 - 15.4
22/06:00am 24.2 28.9 23.3 95 0.6 S 4 6 2 3 1010.5 1010.4 15.4
22/05:30am 24.1 28.3 23.2 95 0.6 S 6 7 3 4 1010.2 - 15.2
22/05:00am 23.7 28.7 22.5 93 0.8 CALM 0 0 0 0 1010.0 - 15.2
22/04:30am 24.0 28.1 23.0 94 0.7 S 6 7 3 4 1010.2 - 15.2
22/04:00am 23.9 29.0 22.7 93 0.8 CALM 0 6 0 3 1010.2 - 15.2
22/03:30am 24.0 28.0 22.8 93 0.8 S 6 7 3 4 1010.2 - 15.2
22/03:00am 24.2 28.3 23.0 93 0.8 S 6 7 3 4 1010.4 1010.3 15.2
22/02:30am 24.4 28.6 23.2 93 0.8 SSE 6 9 3 5 1010.6 - 15.2
22/02:00am 24.6 29.6 23.2 92 0.9 ESE 2 7 1 4 1010.9 - 15.2
22/01:30am 24.8 28.3 23.6 93 0.8 SSE 11 13 6 7 1011.3 - 15.2
22/01:00am 25.0 30.1 24.0 94 0.7 S 4 7 2 4 1011.7 - 15.2
22/12:30am 25.0 30.5 24.0 94 0.7 SE 2 7 1 4 1012.3 - 15.2
22/12:00am 24.8 30.4 23.6 93 0.8 CALM 0 0 0 0 1012.4 1012.3 15.2
 
Date/Time
CST
Temp
°C
App
Temp
°C
Dew
Point
°C
Rel
Hum
%
Delta-T
°C
Wind Press
QNH
hPa
Press
MSL
hPa
Rain since
9am
mm
Dir  Spd
km/h
Gust
km/h
Spd
kts
Gust
kts
21/11:30pm 24.9 30.6 23.7 93 0.8 CALM 0 0 0 0 1012.6 - 15.2
21/11:00pm 24.8 30.0 23.6 93 0.8 E 2 7 1 4 1012.7 - 15.2
21/10:30pm 24.6 27.4 23.0 91 1.1 S 13 26 7 14 1013.1 - 10.0
21/10:00pm 26.8 31.4 24.8 89 1.4 NE 9 15 5 8 1012.7 - 0.6
21/09:30pm 26.8 32.6 24.5 87 1.6 NE 2 7 1 4 1012.6 - 0.0
21/09:00pm 26.8 32.2 24.5 87 1.6 NE 4 6 2 3 1012.5 1012.4 0.0
21/08:30pm 26.9 33.0 24.5 87 1.7 CALM 0 0 0 0 1012.2 - 0.0
21/08:00pm 26.6 32.4 23.9 85 1.9 CALM 0 0 0 0 1011.8 - 0.0
21/07:30pm 27.0 32.7 23.7 82 2.3 CALM 0 0 0 0 1011.2 - 0.0
21/07:00pm 27.3 32.1 23.5 80 2.6 ENE 4 7 2 4 1010.7 - 0.0
21/06:30pm 28.4 33.8 23.3 74 3.5 CALM 0 0 0 0 1010.5 - 0.0
21/06:00pm 29.5 33.8 22.7 67 4.6 E 4 6 2 3 1010.4 1010.3 0.0
21/05:30pm 30.3 33.4 22.2 62 5.5 ENE 9 13 5 7 1010.1 - 0.0
21/05:00pm 30.6 33.9 21.9 59 5.9 ENE 7 11 4 6 1009.9 - 0.0
21/04:30pm 30.8 33.4 21.9 59 6.0 NE 11 17 6 9 1009.8 - 0.0
21/04:00pm 30.9 33.6 22.2 59 5.9 ENE 11 17 6 9 1009.7 - 0.0
21/03:30pm 31.4 34.2 21.6 56 6.6 ENE 9 15 5 8 1009.9 - 0.0
21/03:00pm 31.5 35.0 22.8 60 6.0 E 9 17 5 9 1010.1 1010.0 0.0
21/02:30pm 31.8 34.5 22.2 56 6.5 E 11 20 6 11 1010.3 - 0.0
21/02:00pm 31.1 32.9 21.9 58 6.2 ESE 15 24 8 13 1010.8 - 0.0
21/01:30pm 31.5 32.8 21.7 56 6.6 ESE 17 26 9 14 1010.9 - 0.0

Other Formats:

Comma delimited format used in spreadsheet applications
http://www.bom.gov.au/fwo/IDD60801/IDD60801.94140.axf

JavaScript Object Notation format (JSON) in row-major order
http://www.bom.gov.au/fwo/IDD60801/IDD60801.94140.json